This is the latest recevied weather packets stored in our database for station/object KX4O-13. If no packets are shown the sender has not sent any weather packets the latest 10 day(s).
| Time | Temp. | Humidity | Pressure | Rain* | Wind** | Luminosity | Snow |
|---|---|---|---|---|---|---|---|
| 1777480863 | 14.44° C | 86% | 1012.2 hPa | 0 mm | - | 79 W/m² | - |
| 1777480563 | 14.44° C | 86% | 1012.4 hPa | 0 mm | - | 81 W/m² | - |
| 1777480263 | 14.44° C | 85% | 1012.3 hPa | 0 mm | - | 109 W/m² | - |
| 1777479963 | 14.44° C | 86% | 1012.4 hPa | 0 mm | - | 118 W/m² | - |
| 1777479663 | 14.44° C | 85% | 1012.4 hPa | 0 mm | - | 130 W/m² | - |
| 1777479363 | 14.44° C | 86% | 1012.5 hPa | 0 mm | - | 104 W/m² | - |
| 1777479063 | 13.89° C | 86% | 1012.5 hPa | 0 mm | - | 121 W/m² | - |
| 1777478763 | 13.89° C | 85% | 1012.6 hPa | 0 mm | - | 83 W/m² | - |
| 1777478463 | 13.89° C | 85% | 1012.7 hPa | 0 mm | - | 83 W/m² | - |
| 1777478163 | 13.89° C | 85% | 1012.8 hPa | 0 mm | - | 95 W/m² | - |
| 1777477863 | 13.89° C | 86% | 1012.8 hPa | 0 mm | - | 113 W/m² | - |
| 1777477563 | 13.89° C | 86% | 1012.7 hPa | 0 mm | - | 137 W/m² | - |
| 1777477263 | 13.89° C | 86% | 1013 hPa | 0 mm | - | 128 W/m² | - |
| 1777476963 | 13.89° C | 86% | 1013 hPa | 0 mm | - | 104 W/m² | - |
| 1777476663 | 13.89° C | 86% | 1013 hPa | 0 mm | - | 111 W/m² | - |
| 1777476363 | 13.89° C | 86% | 1013 hPa | 0 mm | - | 113 W/m² | - |
| 1777476063 | 13.89° C | 85% | 1013.1 hPa | 0 mm | - | 107 W/m² | - |
| 1777475763 | 13.89° C | 85% | 1013.1 hPa | 0 mm | - | 123 W/m² | - |
| 1777475463 | 13.33° C | 85% | 1013.3 hPa | 0 mm | - | 111 W/m² | - |
| 1777475163 | 13.89° C | 84% | 1013.4 hPa | 0 mm | - | 104 W/m² | - |
| 1777474863 | 13.33° C | 83% | 1013.5 hPa | 0 mm | - | 97 W/m² | - |
| 1777474563 | 13.89° C | 83% | 1013.6 hPa | 0 mm | - | 111 W/m² | - |
| 1777474263 | 13.89° C | 83% | 1013.7 hPa | 0 mm | - | 95 W/m² | - |
| 1777473963 | 13.33° C | 83% | 1013.7 hPa | 0 mm | - | 90 W/m² | - |
| 1777473663 | 13.89° C | 82% | 1013.5 hPa | 0 mm | - | 102 W/m² | - |
* Rain latest hour (hover to see other rain measurements)
** Current wind speed in m/s (hover to see current wind gust speed)